sensor_id;sensor_type;location;lat;lon;timestamp;temperature;humidity
22917;DHT22;11624;53.250;7.456;2023-01-29T00:02:15;8.91;57.19
22917;DHT22;11624;53.250;7.456;2023-01-29T00:04:43;8.90;57.24
22917;DHT22;11624;53.250;7.456;2023-01-29T00:07:12;8.95;57.06
22917;DHT22;11624;53.250;7.456;2023-01-29T00:09:40;8.92;57.13
22917;DHT22;11624;53.250;7.456;2023-01-29T00:12:08;8.92;56.98
22917;DHT22;11624;53.250;7.456;2023-01-29T00:14:37;8.94;56.95
22917;DHT22;11624;53.250;7.456;2023-01-29T00:17:05;8.95;57.02
22917;DHT22;11624;53.250;7.456;2023-01-29T00:19:35;8.95;56.94
22917;DHT22;11624;53.250;7.456;2023-01-29T00:22:04;9.00;56.93
22917;DHT22;11624;53.250;7.456;2023-01-29T00:24:32;9.06;56.82
22917;DHT22;11624;53.250;7.456;2023-01-29T00:27:01;9.09;56.74
22917;DHT22;11624;53.250;7.456;2023-01-29T00:29:29;9.10;56.78
22917;DHT22;11624;53.250;7.456;2023-01-29T00:31:57;9.11;56.79
22917;DHT22;11624;53.250;7.456;2023-01-29T00:34:26;9.17;56.72
22917;DHT22;11624;53.250;7.456;2023-01-29T00:36:56;9.20;56.61
22917;DHT22;11624;53.250;7.456;2023-01-29T00:39:30;9.19;56.75
22917;DHT22;11624;53.250;7.456;2023-01-29T00:42:14;9.21;56.62
22917;DHT22;11624;53.250;7.456;2023-01-29T00:44:59;9.18;56.77
22917;DHT22;11624;53.250;7.456;2023-01-29T00:47:28;9.20;56.79
22917;DHT22;11624;53.250;7.456;2023-01-29T00:50:01;9.24;56.64
22917;DHT22;11624;53.250;7.456;2023-01-29T00:52:31;9.31;56.58
22917;DHT22;11624;53.250;7.456;2023-01-29T00:54:59;9.29;56.72
22917;DHT22;11624;53.250;7.456;2023-01-29T00:57:29;9.24;57.00
22917;DHT22;11624;53.250;7.456;2023-01-29T00:59:58;9.22;57.03
22917;DHT22;11624;53.250;7.456;2023-01-29T01:02:26;9.01;57.81
22917;DHT22;11624;53.250;7.456;2023-01-29T01:05:14;8.80;58.61
22917;DHT22;11624;53.250;7.456;2023-01-29T01:07:48;8.78;58.70
22917;DHT22;11624;53.250;7.456;2023-01-29T01:10:20;8.81;58.77
22917;DHT22;11624;53.250;7.456;2023-01-29T01:12:50;8.89;58.60
22917;DHT22;11624;53.250;7.456;2023-01-29T01:15:20;8.91;58.60
22917;DHT22;11624;53.250;7.456;2023-01-29T01:17:51;8.93;58.58
22917;DHT22;11624;53.250;7.456;2023-01-29T01:20:20;8.94;58.70
22917;DHT22;11624;53.250;7.456;2023-01-29T01:22:52;9.01;58.53
22917;DHT22;11624;53.250;7.456;2023-01-29T01:25:21;9.08;58.36
22917;DHT22;11624;53.250;7.456;2023-01-29T01:27:51;9.10;58.38
22917;DHT22;11624;53.250;7.456;2023-01-29T01:30:20;9.12;58.35
22917;DHT22;11624;53.250;7.456;2023-01-29T01:32:49;9.11;58.49
22917;DHT22;11624;53.250;7.456;2023-01-29T01:35:17;9.15;58.46
22917;DHT22;11624;53.250;7.456;2023-01-29T01:37:46;9.21;58.35
22917;DHT22;11624;53.250;7.456;2023-01-29T01:40:18;9.23;58.16
22917;DHT22;11624;53.250;7.456;2023-01-29T01:42:47;9.14;58.67
22917;DHT22;11624;53.250;7.456;2023-01-29T01:45:21;9.14;58.36
22917;DHT22;11624;53.250;7.456;2023-01-29T01:47:53;9.21;58.43
22917;DHT22;11624;53.250;7.456;2023-01-29T01:50:28;9.24;58.38
22917;DHT22;11624;53.250;7.456;2023-01-29T01:52:59;9.27;58.38
22917;DHT22;11624;53.250;7.456;2023-01-29T01:55:32;9.26;58.49
22917;DHT22;11624;53.250;7.456;2023-01-29T01:58:05;9.60;57.31
22917;DHT22;11624;53.250;7.456;2023-01-29T02:00:35;9.36;58.45
22917;DHT22;11624;53.250;7.456;2023-01-29T02:03:04;9.30;58.94
22917;DHT22;11624;53.250;7.456;2023-01-29T02:05:52;9.41;58.67
22917;DHT22;11624;53.250;7.456;2023-01-29T02:08:46;9.56;58.13
22917;DHT22;11624;53.250;7.456;2023-01-29T02:11:36;9.75;57.58
22917;DHT22;11624;53.250;7.456;2023-01-29T02:14:05;9.72;57.76
22917;DHT22;11624;53.250;7.456;2023-01-29T02:16:34;9.65;57.98
22917;DHT22;11624;53.250;7.456;2023-01-29T02:19:05;9.69;57.97
22917;DHT22;11624;53.250;7.456;2023-01-29T02:21:51;9.71;57.81
22917;DHT22;11624;53.250;7.456;2023-01-29T02:27:32;9.77;57.47
22917;DHT22;11624;53.250;7.456;2023-01-29T02:30:12;9.49;58.83
22917;DHT22;11624;53.250;7.456;2023-01-29T02:32:52;9.68;57.95
22917;DHT22;11624;53.250;7.456;2023-01-29T02:35:28;9.79;57.87
22917;DHT22;11624;53.250;7.456;2023-01-29T02:38:08;9.79;57.72
22917;DHT22;11624;53.250;7.456;2023-01-29T02:40:42;9.72;57.99
22917;DHT22;11624;53.250;7.456;2023-01-29T02:43:22;9.81;57.74
22917;DHT22;11624;53.250;7.456;2023-01-29T02:46:00;9.67;58.29
22917;DHT22;11624;53.250;7.456;2023-01-29T02:48:39;9.56;58.77
22917;DHT22;11624;53.250;7.456;2023-01-29T02:51:15;9.33;59.58
22917;DHT22;11624;53.250;7.456;2023-01-29T02:53:52;9.36;59.46
22917;DHT22;11624;53.250;7.456;2023-01-29T02:56:26;9.23;59.96
22917;DHT22;11624;53.250;7.456;2023-01-29T02:58:59;9.26;59.72
22917;DHT22;11624;53.250;7.456;2023-01-29T03:01:33;9.24;59.44
22917;DHT22;11624;53.250;7.456;2023-01-29T03:04:06;9.07;60.18
22917;DHT22;11624;53.250;7.456;2023-01-29T03:06:40;9.00;60.49
22917;DHT22;11624;53.250;7.456;2023-01-29T03:09:14;9.06;60.22
22917;DHT22;11624;53.250;7.456;2023-01-29T03:11:47;9.08;60.17
22917;DHT22;11624;53.250;7.456;2023-01-29T03:14:21;9.03;60.25
22917;DHT22;11624;53.250;7.456;2023-01-29T03:16:53;9.06;59.98
22917;DHT22;11624;53.250;7.456;2023-01-29T03:19:25;9.16;59.88
22917;DHT22;11624;53.250;7.456;2023-01-29T03:21:56;9.21;59.66
22917;DHT22;11624;53.250;7.456;2023-01-29T03:24:43;9.21;59.48
22917;DHT22;11624;53.250;7.456;2023-01-29T03:27:35;9.15;59.93
22917;DHT22;11624;53.250;7.456;2023-01-29T03:30:24;9.22;59.74
22917;DHT22;11624;53.250;7.456;2023-01-29T03:33:37;9.01;60.08
22917;DHT22;11624;53.250;7.456;2023-01-29T03:36:10;9.12;59.81
22917;DHT22;11624;53.250;7.456;2023-01-29T03:38:41;9.05;60.28
22917;DHT22;11624;53.250;7.456;2023-01-29T03:41:15;9.06;60.38
22917;DHT22;11624;53.250;7.456;2023-01-29T03:43:51;8.97;60.74
22917;DHT22;11624;53.250;7.456;2023-01-29T03:46:25;9.01;60.35
22917;DHT22;11624;53.250;7.456;2023-01-29T03:49:00;9.10;59.90
22917;DHT22;11624;53.250;7.456;2023-01-29T03:51:37;9.03;60.38
22917;DHT22;11624;53.250;7.456;2023-01-29T03:54:13;8.96;60.55
22917;DHT22;11624;53.250;7.456;2023-01-29T03:56:52;9.00;60.48
22917;DHT22;11624;53.250;7.456;2023-01-29T03:59:32;8.95;60.80
22917;DHT22;11624;53.250;7.456;2023-01-29T04:02:30;9.01;60.37
22917;DHT22;11624;53.250;7.456;2023-01-29T04:05:10;8.88;61.26
22917;DHT22;11624;53.250;7.456;2023-01-29T04:07:55;8.87;61.38
22917;DHT22;11624;53.250;7.456;2023-01-29T04:10:27;9.34;59.93
22917;DHT22;11624;53.250;7.456;2023-01-29T04:12:59;9.49;59.53
22917;DHT22;11624;53.250;7.456;2023-01-29T04:15:33;9.55;59.38
22917;DHT22;11624;53.250;7.456;2023-01-29T04:18:03;9.64;59.25
22917;DHT22;11624;53.250;7.456;2023-01-29T04:20:44;9.63;59.26
22917;DHT22;11624;53.250;7.456;2023-01-29T04:23:21;9.53;59.61
22917;DHT22;11624;53.250;7.456;2023-01-29T04:25:57;9.62;59.52
22917;DHT22;11624;53.250;7.456;2023-01-29T04:28:48;9.57;59.73
22917;DHT22;11624;53.250;7.456;2023-01-29T04:31:22;9.66;59.68
22917;DHT22;11624;53.250;7.456;2023-01-29T04:34:02;9.66;59.61
22917;DHT22;11624;53.250;7.456;2023-01-29T04:36:45;9.71;59.38
22917;DHT22;11624;53.250;7.456;2023-01-29T04:39:19;9.71;59.58
22917;DHT22;11624;53.250;7.456;2023-01-29T04:41:53;9.71;59.64
22917;DHT22;11624;53.250;7.456;2023-01-29T04:44:31;9.75;59.25
22917;DHT22;11624;53.250;7.456;2023-01-29T04:47:06;9.72;59.48
22917;DHT22;11624;53.250;7.456;2023-01-29T04:49:41;9.81;59.10
22917;DHT22;11624;53.250;7.456;2023-01-29T04:52:22;9.84;59.10
22917;DHT22;11624;53.250;7.456;2023-01-29T04:54:59;9.84;58.95
22917;DHT22;11624;53.250;7.456;2023-01-29T04:57:34;9.75;59.28
22917;DHT22;11624;53.250;7.456;2023-01-29T05:00:06;9.74;59.57
22917;DHT22;11624;53.250;7.456;2023-01-29T05:02:37;9.79;59.51
22917;DHT22;11624;53.250;7.456;2023-01-29T05:05:07;9.66;60.12
22917;DHT22;11624;53.250;7.456;2023-01-29T05:07:38;9.68;59.99
22917;DHT22;11624;53.250;7.456;2023-01-29T05:10:12;9.75;59.74
22917;DHT22;11624;53.250;7.456;2023-01-29T05:12:45;9.69;59.86
22917;DHT22;11624;53.250;7.456;2023-01-29T05:15:18;9.78;59.78
22917;DHT22;11624;53.250;7.456;2023-01-29T05:17:47;9.65;60.30
22917;DHT22;11624;53.250;7.456;2023-01-29T05:20:15;9.72;60.07
22917;DHT22;11624;53.250;7.456;2023-01-29T05:22:46;9.74;59.87
22917;DHT22;11624;53.250;7.456;2023-01-29T05:25:21;9.77;59.93
22917;DHT22;11624;53.250;7.456;2023-01-29T05:27:50;9.78;60.01
22917;DHT22;11624;53.250;7.456;2023-01-29T05:30:34;9.67;60.60
22917;DHT22;11624;53.250;7.456;2023-01-29T05:33:03;9.60;60.77
22917;DHT22;11624;53.250;7.456;2023-01-29T05:35:31;9.53;61.23
22917;DHT22;11624;53.250;7.456;2023-01-29T05:38:02;9.45;61.62
22917;DHT22;11624;53.250;7.456;2023-01-29T05:40:30;9.44;61.80
22917;DHT22;11624;53.250;7.456;2023-01-29T05:42:58;9.49;61.67
22917;DHT22;11624;53.250;7.456;2023-01-29T05:45:27;9.45;61.85
22917;DHT22;11624;53.250;7.456;2023-01-29T05:47:55;9.30;62.52
22917;DHT22;11624;53.250;7.456;2023-01-29T05:50:24;9.44;62.13
22917;DHT22;11624;53.250;7.456;2023-01-29T05:52:57;9.47;61.82
22917;DHT22;11624;53.250;7.456;2023-01-29T05:55:27;9.51;61.89
22917;DHT22;11624;53.250;7.456;2023-01-29T05:57:56;9.41;62.36
22917;DHT22;11624;53.250;7.456;2023-01-29T06:00:24;9.53;62.08
22917;DHT22;11624;53.250;7.456;2023-01-29T06:02:53;9.52;61.88
22917;DHT22;11624;53.250;7.456;2023-01-29T06:05:22;9.40;62.38
22917;DHT22;11624;53.250;7.456;2023-01-29T06:07:50;9.49;62.19
22917;DHT22;11624;53.250;7.456;2023-01-29T06:10:19;9.44;62.41
22917;DHT22;11624;53.250;7.456;2023-01-29T06:12:49;9.61;61.82
22917;DHT22;11624;53.250;7.456;2023-01-29T06:15:17;9.61;61.95
22917;DHT22;11624;53.250;7.456;2023-01-29T06:17:46;9.50;62.30
22917;DHT22;11624;53.250;7.456;2023-01-29T06:20:15;9.63;61.85
22917;DHT22;11624;53.250;7.456;2023-01-29T06:22:43;9.64;61.72
22917;DHT22;11624;53.250;7.456;2023-01-29T06:25:12;9.68;61.47
22917;DHT22;11624;53.250;7.456;2023-01-29T06:27:40;9.66;61.53
22917;DHT22;11624;53.250;7.456;2023-01-29T06:30:11;9.66;61.45
22917;DHT22;11624;53.250;7.456;2023-01-29T06:32:40;9.65;61.47
22917;DHT22;11624;53.250;7.456;2023-01-29T06:35:08;9.63;61.51
22917;DHT22;11624;53.250;7.456;2023-01-29T06:37:37;9.64;61.57
22917;DHT22;11624;53.250;7.456;2023-01-29T06:40:06;9.67;61.44
22917;DHT22;11624;53.250;7.456;2023-01-29T06:42:35;9.77;61.10
22917;DHT22;11624;53.250;7.456;2023-01-29T06:45:04;9.77;61.03
22917;DHT22;11624;53.250;7.456;2023-01-29T06:47:33;9.36;62.36
22917;DHT22;11624;53.250;7.456;2023-01-29T06:50:02;9.26;62.73
22917;DHT22;11624;53.250;7.456;2023-01-29T06:52:31;9.24;62.73
22917;DHT22;11624;53.250;7.456;2023-01-29T06:54:59;9.18;62.92
22917;DHT22;11624;53.250;7.456;2023-01-29T06:57:28;9.12;62.97
22917;DHT22;11624;53.250;7.456;2023-01-29T06:59:56;9.04;63.17
22917;DHT22;11624;53.250;7.456;2023-01-29T07:02:25;9.10;62.92
22917;DHT22;11624;53.250;7.456;2023-01-29T07:04:55;9.04;62.84
22917;DHT22;11624;53.250;7.456;2023-01-29T07:07:23;9.07;62.94
22917;DHT22;11624;53.250;7.456;2023-01-29T07:09:51;9.02;62.86
22917;DHT22;11624;53.250;7.456;2023-01-29T07:12:20;9.07;62.43
22917;DHT22;11624;53.250;7.456;2023-01-29T07:14:48;9.36;61.41
22917;DHT22;11624;53.250;7.456;2023-01-29T07:17:16;9.48;60.80
22917;DHT22;11624;53.250;7.456;2023-01-29T07:19:46;9.27;61.62
22917;DHT22;11624;53.250;7.456;2023-01-29T07:22:16;9.30;61.57
22917;DHT22;11624;53.250;7.456;2023-01-29T07:24:44;9.26;61.24
22917;DHT22;11624;53.250;7.456;2023-01-29T07:27:14;9.36;61.05
22917;DHT22;11624;53.250;7.456;2023-01-29T07:29:42;9.20;61.48
22917;DHT22;11624;53.250;7.456;2023-01-29T07:32:10;9.27;61.13
22917;DHT22;11624;53.250;7.456;2023-01-29T07:34:39;9.21;60.96
22917;DHT22;11624;53.250;7.456;2023-01-29T07:37:07;9.30;60.83
22917;DHT22;11624;53.250;7.456;2023-01-29T07:39:37;9.39;60.54
22917;DHT22;11624;53.250;7.456;2023-01-29T07:42:05;9.44;60.41
22917;DHT22;11624;53.250;7.456;2023-01-29T07:44:33;9.45;60.11
22917;DHT22;11624;53.250;7.456;2023-01-29T07:47:02;9.27;60.67
22917;DHT22;11624;53.250;7.456;2023-01-29T07:49:30;9.26;60.62
22917;DHT22;11624;53.250;7.456;2023-01-29T07:51:58;9.33;60.35
22917;DHT22;11624;53.250;7.456;2023-01-29T07:54:26;9.37;60.18
22917;DHT22;11624;53.250;7.456;2023-01-29T07:56:56;9.35;60.18
22917;DHT22;11624;53.250;7.456;2023-01-29T07:59:24;9.29;60.25
22917;DHT22;11624;53.250;7.456;2023-01-29T08:01:53;9.26;60.40
22917;DHT22;11624;53.250;7.456;2023-01-29T08:04:21;9.33;60.26
22917;DHT22;11624;53.250;7.456;2023-01-29T08:06:53;9.24;60.15
22917;DHT22;11624;53.250;7.456;2023-01-29T08:09:21;9.30;60.37
22917;DHT22;11624;53.250;7.456;2023-01-29T08:11:49;9.40;60.12
22917;DHT22;11624;53.250;7.456;2023-01-29T08:14:19;9.45;59.77
22917;DHT22;11624;53.250;7.456;2023-01-29T08:16:47;9.45;59.78
22917;DHT22;11624;53.250;7.456;2023-01-29T08:19:15;9.50;59.61
22917;DHT22;11624;53.250;7.456;2023-01-29T08:21:44;9.50;59.67
22917;DHT22;11624;53.250;7.456;2023-01-29T08:24:12;9.40;59.90
22917;DHT22;11624;53.250;7.456;2023-01-29T08:26:40;9.48;59.77
22917;DHT22;11624;53.250;7.456;2023-01-29T08:29:09;9.50;59.56
22917;DHT22;11624;53.250;7.456;2023-01-29T08:31:39;9.50;59.43
22917;DHT22;11624;53.250;7.456;2023-01-29T08:34:07;9.48;59.28
22917;DHT22;11624;53.250;7.456;2023-01-29T08:36:35;9.49;59.38
22917;DHT22;11624;53.250;7.456;2023-01-29T08:39:04;9.52;59.17
22917;DHT22;11624;53.250;7.456;2023-01-29T08:41:32;9.59;58.86
22917;DHT22;11624;53.250;7.456;2023-01-29T08:44:02;9.57;58.98
22917;DHT22;11624;53.250;7.456;2023-01-29T08:46:31;9.50;59.26
22917;DHT22;11624;53.250;7.456;2023-01-29T08:49:01;9.38;59.59
22917;DHT22;11624;53.250;7.456;2023-01-29T08:51:29;9.38;59.84
22917;DHT22;11624;53.250;7.456;2023-01-29T08:53:58;9.41;59.77
22917;DHT22;11624;53.250;7.456;2023-01-29T08:56:26;9.49;59.55
22917;DHT22;11624;53.250;7.456;2023-01-29T08:58:54;9.59;59.16
22917;DHT22;11624;53.250;7.456;2023-01-29T09:01:24;9.52;59.35
22917;DHT22;11624;53.250;7.456;2023-01-29T09:03:53;9.65;59.08
22917;DHT22;11624;53.250;7.456;2023-01-29T09:06:22;9.62;58.77
22917;DHT22;11624;53.250;7.456;2023-01-29T09:08:51;9.75;58.86
22917;DHT22;11624;53.250;7.456;2023-01-29T09:11:19;9.68;58.96
22917;DHT22;11624;53.250;7.456;2023-01-29T09:13:47;9.78;58.67
22917;DHT22;11624;53.250;7.456;2023-01-29T09:16:16;9.82;58.70
22917;DHT22;11624;53.250;7.456;2023-01-29T09:18:44;9.78;58.77
22917;DHT22;11624;53.250;7.456;2023-01-29T09:21:12;9.80;58.70
22917;DHT22;11624;53.250;7.456;2023-01-29T09:23:42;9.88;58.67
22917;DHT22;11624;53.250;7.456;2023-01-29T09:26:10;9.88;58.62
22917;DHT22;11624;53.250;7.456;2023-01-29T09:28:38;9.88;58.45
22917;DHT22;11624;53.250;7.456;2023-01-29T09:31:07;9.94;58.59
22917;DHT22;11624;53.250;7.456;2023-01-29T09:33:35;10.05;58.18
22917;DHT22;11624;53.250;7.456;2023-01-29T09:36:04;10.07;58.03
22917;DHT22;11624;53.250;7.456;2023-01-29T09:38:33;9.97;58.29
22917;DHT22;11624;53.250;7.456;2023-01-29T09:41:12;9.95;58.13
22917;DHT22;11624;53.250;7.456;2023-01-29T09:43:47;10.09;58.37
22917;DHT22;11624;53.250;7.456;2023-01-29T09:46:20;9.96;58.51
22917;DHT22;11624;53.250;7.456;2023-01-29T09:48:56;9.94;58.47
22917;DHT22;11624;53.250;7.456;2023-01-29T09:51:29;9.85;59.19
22917;DHT22;11624;53.250;7.456;2023-01-29T09:54:10;10.01;58.67
22917;DHT22;11624;53.250;7.456;2023-01-29T09:56:41;10.00;58.65
22917;DHT22;11624;53.250;7.456;2023-01-29T09:59:12;10.05;58.56
22917;DHT22;11624;53.250;7.456;2023-01-29T10:01:48;10.22;57.92
22917;DHT22;11624;53.250;7.456;2023-01-29T10:04:36;10.12;58.28
22917;DHT22;11624;53.250;7.456;2023-01-29T10:10:21;9.92;58.86
22917;DHT22;11624;53.250;7.456;2023-01-29T10:13:09;9.83;59.19
22917;DHT22;11624;53.250;7.456;2023-01-29T10:15:52;9.83;58.94
22917;DHT22;11624;53.250;7.456;2023-01-29T10:18:43;9.88;58.80
22917;DHT22;11624;53.250;7.456;2023-01-29T10:21:36;9.69;59.46
22917;DHT22;11624;53.250;7.456;2023-01-29T10:24:19;9.83;59.13
22917;DHT22;11624;53.250;7.456;2023-01-29T10:26:49;9.96;59.14
22917;DHT22;11624;53.250;7.456;2023-01-29T10:29:20;10.01;59.03
22917;DHT22;11624;53.250;7.456;2023-01-29T10:31:53;10.00;59.06
22917;DHT22;11624;53.250;7.456;2023-01-29T10:34:28;9.88;59.46
22917;DHT22;11624;53.250;7.456;2023-01-29T10:36:57;9.72;60.17
22917;DHT22;11624;53.250;7.456;2023-01-29T10:39:29;9.79;60.08
22917;DHT22;11624;53.250;7.456;2023-01-29T10:42:17;9.85;59.73
22917;DHT22;11624;53.250;7.456;2023-01-29T10:45:00;9.96;59.59
22917;DHT22;11624;53.250;7.456;2023-01-29T10:47:49;9.96;59.54
22917;DHT22;11624;53.250;7.456;2023-01-29T10:50:29;9.96;59.34
22917;DHT22;11624;53.250;7.456;2023-01-29T10:53:16;10.04;59.20
22917;DHT22;11624;53.250;7.456;2023-01-29T10:55:55;10.27;58.73
22917;DHT22;11624;53.250;7.456;2023-01-29T10:58:36;10.15;59.15
22917;DHT22;11624;53.250;7.456;2023-01-29T11:01:09;10.09;59.48
22917;DHT22;11624;53.250;7.456;2023-01-29T11:03:37;10.36;59.05
22917;DHT22;11624;53.250;7.456;2023-01-29T11:06:13;10.28;58.47
22917;DHT22;11624;53.250;7.456;2023-01-29T11:08:50;10.31;58.91
22917;DHT22;11624;53.250;7.456;2023-01-29T11:11:32;10.16;59.26
22917;DHT22;11624;53.250;7.456;2023-01-29T11:14:03;10.20;59.06
22917;DHT22;11624;53.250;7.456;2023-01-29T11:16:41;10.22;58.95
22917;DHT22;11624;53.250;7.456;2023-01-29T11:19:10;10.09;59.14
22917;DHT22;11624;53.250;7.456;2023-01-29T11:21:50;10.05;58.90
22917;DHT22;11624;53.250;7.456;2023-01-29T11:24:19;10.15;59.26
22917;DHT22;11624;53.250;7.456;2023-01-29T11:26:48;10.20;58.96
22917;DHT22;11624;53.250;7.456;2023-01-29T11:29:37;10.38;58.65
22917;DHT22;11624;53.250;7.456;2023-01-29T11:32:12;10.30;58.66
22917;DHT22;11624;53.250;7.456;2023-01-29T11:34:59;10.18;58.99
22917;DHT22;11624;53.250;7.456;2023-01-29T11:37:33;10.13;59.17
22917;DHT22;11624;53.250;7.456;2023-01-29T11:40:39;10.18;58.77
22917;DHT22;11624;53.250;7.456;2023-01-29T11:43:27;10.07;59.14
22917;DHT22;11624;53.250;7.456;2023-01-29T11:45:59;10.03;59.64
22917;DHT22;11624;53.250;7.456;2023-01-29T11:48:38;10.00;59.53
22917;DHT22;11624;53.250;7.456;2023-01-29T11:51:10;9.99;59.47
22917;DHT22;11624;53.250;7.456;2023-01-29T11:53:40;10.04;59.66
22917;DHT22;11624;53.250;7.456;2023-01-29T11:56:17;10.26;59.11
22917;DHT22;11624;53.250;7.456;2023-01-29T11:58:48;10.12;59.07
22917;DHT22;11624;53.250;7.456;2023-01-29T12:01:27;10.20;59.18
22917;DHT22;11624;53.250;7.456;2023-01-29T12:03:58;10.29;59.37
22917;DHT22;11624;53.250;7.456;2023-01-29T12:06:32;9.90;60.91
22917;DHT22;11624;53.250;7.456;2023-01-29T12:09:08;9.93;60.81
22917;DHT22;11624;53.250;7.456;2023-01-29T12:11:36;9.94;61.01
22917;DHT22;11624;53.250;7.456;2023-01-29T12:14:22;9.83;61.32
22917;DHT22;11624;53.250;7.456;2023-01-29T12:16:54;9.78;61.58
22917;DHT22;11624;53.250;7.456;2023-01-29T12:19:30;9.90;61.35
22917;DHT22;11624;53.250;7.456;2023-01-29T12:22:04;9.83;61.78
22917;DHT22;11624;53.250;7.456;2023-01-29T12:24:36;9.84;61.70
22917;DHT22;11624;53.250;7.456;2023-01-29T12:27:09;9.84;61.96
22917;DHT22;11624;53.250;7.456;2023-01-29T12:29:44;9.75;62.48
22917;DHT22;11624;53.250;7.456;2023-01-29T12:32:25;9.64;62.84
22917;DHT22;11624;53.250;7.456;2023-01-29T12:35:02;9.41;63.95
22917;DHT22;11624;53.250;7.456;2023-01-29T12:37:37;9.49;63.82
22917;DHT22;11624;53.250;7.456;2023-01-29T12:40:13;9.32;64.66
22917;DHT22;11624;53.250;7.456;2023-01-29T12:42:46;9.46;64.46
22917;DHT22;11624;53.250;7.456;2023-01-29T12:45:17;9.49;64.45
22917;DHT22;11624;53.250;7.456;2023-01-29T12:47:48;9.45;64.58
22917;DHT22;11624;53.250;7.456;2023-01-29T12:50:21;9.60;64.44
22917;DHT22;11624;53.250;7.456;2023-01-29T12:52:52;9.64;64.39
22917;DHT22;11624;53.250;7.456;2023-01-29T12:55:24;9.56;64.79
22917;DHT22;11624;53.250;7.456;2023-01-29T12:57:56;9.76;64.03
22917;DHT22;11624;53.250;7.456;2023-01-29T13:00:28;10.24;62.61
22917;DHT22;11624;53.250;7.456;2023-01-29T13:03:00;10.07;63.16
22917;DHT22;11624;53.250;7.456;2023-01-29T13:05:38;9.76;64.09
22917;DHT22;11624;53.250;7.456;2023-01-29T13:08:13;9.80;63.99
22917;DHT22;11624;53.250;7.456;2023-01-29T13:10:47;9.74;63.88
22917;DHT22;11624;53.250;7.456;2023-01-29T13:13:23;10.03;62.91
22917;DHT22;11624;53.250;7.456;2023-01-29T13:15:54;10.29;62.12
22917;DHT22;11624;53.250;7.456;2023-01-29T13:18:40;10.36;61.49
22917;DHT22;11624;53.250;7.456;2023-01-29T13:21:16;10.35;61.50
22917;DHT22;11624;53.250;7.456;2023-01-29T13:23:48;10.55;61.44
22917;DHT22;11624;53.250;7.456;2023-01-29T13:26:18;10.36;61.72
22917;DHT22;11624;53.250;7.456;2023-01-29T13:28:47;10.38;61.71
22917;DHT22;11624;53.250;7.456;2023-01-29T13:31:28;10.55;60.81
22917;DHT22;11624;53.250;7.456;2023-01-29T13:34:07;10.53;60.59
22917;DHT22;11624;53.250;7.456;2023-01-29T13:36:41;10.59;60.38
22917;DHT22;11624;53.250;7.456;2023-01-29T13:39:19;10.66;60.13
22917;DHT22;11624;53.250;7.456;2023-01-29T13:41:50;10.68;60.28
22917;DHT22;11624;53.250;7.456;2023-01-29T13:44:25;10.68;59.86
22917;DHT22;11624;53.250;7.456;2023-01-29T13:46:56;10.77;60.08
22917;DHT22;11624;53.250;7.456;2023-01-29T13:49:35;10.80;59.82
22917;DHT22;11624;53.250;7.456;2023-01-29T13:52:20;10.85;59.38
22917;DHT22;11624;53.250;7.456;2023-01-29T13:54:52;10.84;59.73
22917;DHT22;11624;53.250;7.456;2023-01-29T13:57:47;10.83;59.25
22917;DHT22;11624;53.250;7.456;2023-01-29T14:03:42;10.49;60.25
22917;DHT22;11624;53.250;7.456;2023-01-29T14:06:42;10.45;60.58
22917;DHT22;11624;53.250;7.456;2023-01-29T14:12:45;10.36;60.76
22917;DHT22;11624;53.250;7.456;2023-01-29T14:15:25;10.34;60.86
22917;DHT22;11624;53.250;7.456;2023-01-29T14:18:15;10.03;62.00
22917;DHT22;11624;53.250;7.456;2023-01-29T14:20:55;9.71;63.17
22917;DHT22;11624;53.250;7.456;2023-01-29T14:23:37;9.68;63.32
22917;DHT22;11624;53.250;7.456;2023-01-29T14:26:30;9.59;63.36
22917;DHT22;11624;53.250;7.456;2023-01-29T14:29:03;9.48;63.69
22917;DHT22;11624;53.250;7.456;2023-01-29T14:31:41;9.36;63.81
22917;DHT22;11624;53.250;7.456;2023-01-29T14:34:21;9.42;63.42
22917;DHT22;11624;53.250;7.456;2023-01-29T14:36:53;9.44;63.75
22917;DHT22;11624;53.250;7.456;2023-01-29T14:39:34;9.24;64.23
22917;DHT22;11624;53.250;7.456;2023-01-29T14:42:15;9.33;63.67
22917;DHT22;11624;53.250;7.456;2023-01-29T14:47:54;9.29;63.92
22917;DHT22;11624;53.250;7.456;2023-01-29T14:50:50;9.25;63.86
22917;DHT22;11624;53.250;7.456;2023-01-29T14:53:24;9.34;63.60
22917;DHT22;11624;53.250;7.456;2023-01-29T14:55:57;9.27;64.18
22917;DHT22;11624;53.250;7.456;2023-01-29T14:58:37;9.16;64.67
22917;DHT22;11624;53.250;7.456;2023-01-29T15:01:19;9.17;64.62
22917;DHT22;11624;53.250;7.456;2023-01-29T15:03:50;9.00;65.50
22917;DHT22;11624;53.250;7.456;2023-01-29T15:06:25;8.87;66.04
22917;DHT22;11624;53.250;7.456;2023-01-29T15:09:02;8.79;66.42
22917;DHT22;11624;53.250;7.456;2023-01-29T15:11:36;8.94;65.97
22917;DHT22;11624;53.250;7.456;2023-01-29T15:14:21;9.05;65.58
22917;DHT22;11624;53.250;7.456;2023-01-29T15:17:01;9.04;65.56
22917;DHT22;11624;53.250;7.456;2023-01-29T15:19:34;9.08;65.58
22917;DHT22;11624;53.250;7.456;2023-01-29T15:22:08;9.06;65.72
22917;DHT22;11624;53.250;7.456;2023-01-29T15:24:37;9.04;66.01
22917;DHT22;11624;53.250;7.456;2023-01-29T15:27:08;9.12;65.72
22917;DHT22;11624;53.250;7.456;2023-01-29T15:29:38;9.07;65.94
22917;DHT22;11624;53.250;7.456;2023-01-29T15:32:13;9.18;65.46
22917;DHT22;11624;53.250;7.456;2023-01-29T15:34:42;9.25;65.24
22917;DHT22;11624;53.250;7.456;2023-01-29T15:37:30;9.14;65.43
22917;DHT22;11624;53.250;7.456;2023-01-29T15:39:59;9.16;65.71
22917;DHT22;11624;53.250;7.456;2023-01-29T15:42:29;9.14;65.72
22917;DHT22;11624;53.250;7.456;2023-01-29T15:45:20;9.04;66.07
22917;DHT22;11624;53.250;7.456;2023-01-29T15:47:52;9.10;65.88
22917;DHT22;11624;53.250;7.456;2023-01-29T15:50:21;8.93;66.46
22917;DHT22;11624;53.250;7.456;2023-01-29T15:52:51;9.03;66.30
22917;DHT22;11624;53.250;7.456;2023-01-29T15:55:22;9.08;66.12
22917;DHT22;11624;53.250;7.456;2023-01-29T15:57:51;8.97;66.50
22917;DHT22;11624;53.250;7.456;2023-01-29T16:00:22;9.01;66.50
22917;DHT22;11624;53.250;7.456;2023-01-29T16:02:52;8.95;66.46
22917;DHT22;11624;53.250;7.456;2023-01-29T16:05:23;8.92;66.66
22917;DHT22;11624;53.250;7.456;2023-01-29T16:07:53;9.00;66.59
22917;DHT22;11624;53.250;7.456;2023-01-29T16:10:24;8.88;66.71
22917;DHT22;11624;53.250;7.456;2023-01-29T16:12:53;8.97;66.63
22917;DHT22;11624;53.250;7.456;2023-01-29T16:15:32;8.95;66.55
22917;DHT22;11624;53.250;7.456;2023-01-29T16:18:16;9.00;66.51
22917;DHT22;11624;53.250;7.456;2023-01-29T16:20:50;9.01;66.36
22917;DHT22;11624;53.250;7.456;2023-01-29T16:23:21;8.96;66.39
22917;DHT22;11624;53.250;7.456;2023-01-29T16:25:50;8.88;66.59
22917;DHT22;11624;53.250;7.456;2023-01-29T16:28:20;9.00;66.62
22917;DHT22;11624;53.250;7.456;2023-01-29T16:30:54;8.94;66.39
22917;DHT22;11624;53.250;7.456;2023-01-29T16:33:30;9.03;66.18
22917;DHT22;11624;53.250;7.456;2023-01-29T16:35:58;9.09;66.11
22917;DHT22;11624;53.250;7.456;2023-01-29T16:38:30;9.14;65.90
22917;DHT22;11624;53.250;7.456;2023-01-29T16:41:14;9.09;65.75